Data for 07/23/2009

Time Sea-Level Adjusted Pressure Absolute Pressure Temperature Relative Humidity Dew Point   
(mb) (inHg) (mb) (inHg) (C) (F) (%) (C) (F)
00:05 1019 30.09 849 25.07 17.8 64.1 43 5.3 41.5
00:10 1019 30.09 849 25.07 17.7 63.9 43 5.3 41.5
00:15 1019 30.09 849 25.07 17.7 63.8 43 5.1 41.2
00:20 1019 30.09 849 25.07 17.7 63.8 43 5 41
00:25 1019 30.09 849 25.07 17.7 63.8 43 5 41.1
00:30 1019 30.09 849 25.07 17.5 63.4 44 5.3 41.6
00:35 1020 30.12 849 25.07 17.5 63.4 42 4.7 40.4
00:40 1020 30.12 849 25.07 17.7 63.9 42 4.6 40.3
00:45 1020 30.12 849 25.07 17.8 64 41 4.3 39.7
00:50 1020 30.12 849 25.07 18 64.4 40 4.4 39.9
00:55 1020 30.12 849 25.07 17.9 64.1 41 4.4 40
01:00 1020 30.12 849 25.07 17.9 64.2 41 4.7 40.4
01:05 1020 30.12 849 25.07 18.1 64.5 43 5.3 41.6
01:10 1020 30.12 849 25.07 18.3 64.9 36 3.3 37.9
01:15 1020 30.12 849 25.07 18.5 65.2 39 4.4 39.9
01:20 1020 30.12 849 25.07 18.2 64.8 43 5.5 41.8
01:25 1020 30.12 849 25.07 17.9 64.2 44 5.7 42.3
01:30 1020 30.12 849 25.07 17.6 63.6 43 4.8 40.6
01:35 1020 30.12 849 25.07 17.2 62.9 40 3.7 38.6
01:40 1020 30.12 849 25.07 17.4 63.3 43 4.9 40.8
01:45 1020 30.12 849 25.07 17.3 63.2 43 4.7 40.4
01:50 1020 30.12 849 25.07 17.2 62.9 43 4.5 40.1
01:55 1020 30.12 849 25.07 17.1 62.7 42 4 39.2
02:00 1020 30.12 849 25.07 17.1 62.7 41 4 39.2
02:05 1020 30.12 849 25.07 17.4 63.2 38 3 37.4
02:10 1020 30.12 849 25.07 18 64.3 39 4 39.2
02:15 1020 30.12 849 25.07 17.4 63.4 42 4.6 40.3
02:20 1020 30.12 849 25.07 17.2 62.9 41 3.9 39
02:25 1020 30.12 849 25.07 17.1 62.8 46 5.5 41.9
02:30 1020 30.12 849 25.07 16.8 62.3 43 4.4 39.8
02:35 1020 30.12 849 25.07 16.3 61.3 46 4.9 40.8
02:40 1020 30.12 849 25.07 16 60.7 44 3.9 39
02:45 1020 30.12 849 25.07 16.3 61.3 43 3.7 38.6
02:50 1020 30.12 849 25.07 16.5 61.7 43 3.9 39
02:55 1020 30.12 849 25.07 16.2 61.2 44 4.1 39.4
03:00 1020 30.12 849 25.07 15.9 60.6 44 3.7 38.7
03:05 1020 30.12 849 25.07 16 60.8 43 3.5 38.2
03:10 1020 30.12 849 25.07 16.4 61.6 41 3.4 38.1
03:15 1020 30.12 849 25.07 16.6 61.8 40 2.9 37.3
03:20 1020 30.12 849 25.07 16.7 62.1 40 3.3 37.9
03:25 1020 30.12 849 25.07 16.7 62 39 2.8 37.1
03:30 1020 30.12 849 25.07 17 62.6 38 2.9 37.1
03:35 1020 30.12 849 25.07 17.2 62.9 38 2.7 36.9
03:40 1020 30.12 849 25.07 17.2 63 38 3 37.5
03:45 1020 30.12 849 25.07 17.1 62.7 40 3.4 38.1
03:50 1020 30.12 849 25.07 16.8 62.2 41 3.6 38.5
03:55 1020 30.12 849 25.07 16.7 62.1 40 3.1 37.6
04:00 1020 30.12 849 25.07 16.8 62.3 39 3 37.3
04:05 1020 30.12 849 25.07 17.1 62.8 38 2.7 36.9
04:10 1020 30.12 849 25.07 17.5 63.5 37 2.7 36.9
04:15 1020 30.12 849 25.07 17.6 63.7 37 2.8 37.1
04:20 1020 30.12 849 25.07 17.4 63.3 39 3.4 38.1
04:25 1020 30.12 849 25.07 17.1 62.8 39 3.2 37.7
04:30 1020 30.12 849 25.07 17.1 62.7 40 3.4 38.2
04:35 1020 30.12 849 25.07 16.9 62.3 41 3.7 38.7
04:40 1020 30.12 849 25.07 16.8 62.2 40 3.2 37.7
04:45 1020 30.12 849 25.07 16.9 62.4 40 3.3 38
04:50 1020 30.12 849 25.07 16.7 62.1 41 3.5 38.3
04:55 1020 30.12 849 25.07 16.5 61.7 42 3.6 38.5
05:00 1020 30.12 849 25.07 16.7 62 40 3.1 37.6
05:05 1020 30.12 849 25.07 16.7 62.1 40 3.1 37.5
05:10 1020 30.12 849 25.07 16.8 62.3 39 3.1 37.6
05:15 1020 30.12 849 25.07 16.9 62.4 39 2.8 37.1
05:20 1020 30.12 849 25.07 17 62.6 40 3.3 37.9
05:25 1020 30.12 849 25.07 16.6 61.8 42 3.7 38.6
05:30 1020 30.12 849 25.07 15.9 60.7 44 3.6 38.6
05:35 1020 30.12 849 25.07 15.7 60.2 44 3.7 38.6
05:40 1020 30.12 850 25.1 15.7 60.2 44 3.5 38.2
05:45 1020 30.12 850 25.1 15.7 60.2 44 3.6 38.5
05:50 1020 30.12 850 25.1 15.6 60.1 44 3.4 38.1
05:55 1020 30.12 850 25.1 15.8 60.4 43 3.4 38.1
06:00 1020 30.12 850 25.1 15.9 60.6 43 3.4 38.1
06:05 1020 30.12 850 25.1 15.9 60.6 44 3.7 38.6
06:10 1021 30.15 850 25.1 15.4 59.7 46 3.9 39.1
06:15 1021 30.15 850 25.1 15.1 59.1 46 3.5 38.3
06:20 1021 30.15 850 25.1 15.3 59.5 44 3.1 37.6
06:25 1021 30.15 850 25.1 15.7 60.3 42 2.9 37.2
06:30 1021 30.15 850 25.1 16.3 61.3 41 3.2 37.7
06:35 1021 30.15 850 25.1 16.5 61.7 42 3.5 38.4
06:40 1021 30.15 850 25.1 15.9 60.7 45 4 39.2
06:45 1021 30.15 850 25.1 15.5 59.8 47 4.2 39.5
06:50 1021 30.15 850 25.1 15.2 59.4 47 4.1 39.4
06:55 1021 30.15 850 25.1 15.2 59.4 46 3.7 38.6
07:00 1021 30.15 850 25.1 15.6 60.1 48 4.9 40.7
07:05 1021 30.15 850 25.1 15.9 60.7 47 4.7 40.5
07:10 1021 30.15 850 25.1 15.8 60.5 48 5 40.9
07:15 1021 30.15 850 25.1 15.8 60.4 45 4 39.3
07:20 1021 30.15 850 25.1 15.7 60.3 48 4.9 40.8
07:25 1021 30.15 850 25.1 15.8 60.5 47 4.6 40.3
07:30 1021 30.15 850 25.1 16.1 61 45 4.2 39.6
07:35 1021 30.15 850 25.1 16.6 61.8 44 4.4 40
07:40 1021 30.15 850 25.1 16.9 62.4 45 5 40.9
07:45 1021 30.15 850 25.1 16.9 62.5 47 5.6 42.1
07:50 1021 30.15 850 25.1 17.5 63.4 42 4.4 39.9
07:55 1021 30.15 850 25.1 17.9 64.2 41 4.7 40.5
08:00 1021 30.15 850 25.1 18.3 64.9 41 4.8 40.6
08:05 1021 30.15 850 25.1 18.3 64.9 42 5.2 41.3
08:10 1021 30.15 850 25.1 18.4 65.1 42 5.2 41.4
08:15 1021 30.15 850 25.1 18.9 65.9 41 5.5 41.9
08:20 1021 30.15 850 25.1 19.3 66.8 42 6.3 43.4
08:25 1021 30.15 850 25.1 19.9 67.7 38 5.3 41.6
08:30 1021 30.15 850 25.1 20.2 68.4 38 5.5 41.9
08:35 1021 30.15 850 25.1 20.7 69.3 36 5.2 41.3
08:40 1021 30.15 850 25.1 21.4 70.6 34 5.1 41.2
08:45 1021 30.15 850 25.1 21.6 70.9 36 6.1 43
08:50 1021 30.15 850 25.1 21.5 70.8 36 6 42.8
08:55 1021 30.15 850 25.1 21.6 70.9 37 6.5 43.7
09:00 1021 30.15 850 25.1 22.2 71.9 34 6 42.7
09:05 1021 30.15 850 25.1 22.5 72.4 33 5.7 42.3
09:10 1021 30.15 850 25.1 22.9 73.3 33 6 42.7
09:15 1021 30.15 850 25.1 22.9 73.3 33 6 42.8
09:20 1021 30.15 850 25.1 23.5 74.2 33 6.3 43.3
09:25 1021 30.15 850 25.1 23.9 74.9 33 6.8 44.2
09:30 1020 30.12 850 25.1 24 75.3 31 6.2 43.2
09:35 1020 30.12 850 25.1 24.6 76.3 30 6.3 43.4
09:40 1020 30.12 850 25.1 25.1 77.2 31 7 44.6
09:45 1020 30.12 850 25.1 25.2 77.3 31 7.3 45.1
09:50 1020 30.12 850 25.1 25.3 77.6 31 7.1 44.8
09:55 1020 30.12 850 25.1 25.6 78.2 30 6.9 44.5
10:00 1020 30.12 850 25.1 25.6 78.1 28 6.2 43.2
10:05 1020 30.12 850 25.1 26.5 79.6 26 5.7 42.3
10:10 1020 30.12 849 25.07 26.8 80.2 27 6.6 43.9
10:15 1020 30.12 849 25.07 27.3 81.1 29 8.1 46.5
10:20 1020 30.12 849 25.07 26.1 78.9 31 7.8 46.1
10:25 1020 30.12 849 25.07 26.7 80 29 7.2 45
10:30 1020 30.12 849 25.07 26.7 80.1 28 7.1 44.8
10:35 1020 30.12 849 25.07 27.5 81.6 27 7.2 45
10:40 1020 30.12 849 25.07 28.1 82.6 26 7.4 45.2
10:45 1020 30.12 849 25.07 28 82.5 26 7 44.6
10:50 1020 30.12 849 25.07 28.1 82.6 26 7.2 45
10:55 1020 30.12 849 25.07 27.6 81.7 26 6.8 44.3
11:00 1020 30.12 849 25.07 28 82.3 26 7.1 44.7
11:05 1020 30.12 849 25.07 28.1 82.5 26 7.2 45
11:10 1020 30.12 849 25.07 28.6 83.4 24 6.1 43.1
11:15 1020 30.12 849 25.07 28.7 83.7 24 6.3 43.3
11:20 1020 30.12 849 25.07 29.4 85 22 5.7 42.2
11:25 1020 30.12 849 25.07 29.1 84.3 24 6.7 44.1
11:30 1020 30.12 849 25.07 28 82.4 23 5.2 41.4
11:35 1020 30.12 849 25.07 28.4 83.1 23 5.6 42.2
11:40 1020 30.12 849 25.07 29.6 85.2 21 5.3 41.6
11:45 1020 30.12 849 25.07 30 86 21 5.7 42.3
11:50 1020 30.12 849 25.07 30 86.1 22 6.5 43.7
11:55 1020 30.12 849 25.07 29.6 85.2 19 3.9 39
12:00 1020 30.12 849 25.07 30 85.9 18 3.1 37.5
12:05 1020 30.12 849 25.07 31.1 87.9 18 4.5 40
12:10 1020 30.12 849 25.07 31.1 88 16 2.3 36.2
12:15 1020 30.12 849 25.07 30.6 87.1 16 1.9 35.4
12:20 1020 30.12 849 25.07 31.7 89 15 2.4 36.3
12:25 1020 30.12 849 25.07 31.5 88.8 16 2.8 37.1
12:30 1020 30.12 849 25.07 31.2 88.1 17 3.4 38.2
12:35 1020 30.12 849 25.07 31.3 88.4 17 3.8 38.8
12:40 1020 30.12 849 25.07 31.5 88.7 15 2.3 36.1
12:45 1020 30.12 849 25.07 31.5 88.8 15 2.2 36
12:50 1019 30.09 849 25.07 31.2 88.1 15 1.4 34.6
12:55 1019 30.09 849 25.07 30.7 87.3 15 1.8 35.2
13:00 1019 30.09 849 25.07 30.4 86.7 15 1.3 34.3
13:05 1019 30.09 849 25.07 31 87.8 15 2 35.7
13:10 1019 30.09 849 25.07 31.6 88.9 14 1.7 35
13:15 1019 30.09 849 25.07 31.7 89 14 1.6 35
13:20 1019 30.09 849 25.07 32 89.7 13 1.1 33.9
13:25 1019 30.09 849 25.07 32.5 90.5 14 1.8 35.3
13:30 1019 30.09 848 25.04 32 89.6 13 0.6 33
13:35 1019 30.09 848 25.04 32.3 90.2 13 1.1 34.1
13:40 1019 30.09 848 25.04 33.6 92.5 12 1.2 34.1
13:45 1019 30.09 848 25.04 32.4 90.4 12 -0.7 30.8
13:50 1019 30.09 848 25.04 32.7 90.9 11 -0.9 30.3
13:55 1019 30.09 848 25.04 33.2 91.7 12 -0.1 31.9
14:00 1019 30.09 848 25.04 33.5 92.2 12 0.5 33
14:05 1019 30.09 848 25.04 33.4 92.1 12 1 33.8
14:10 1019 30.09 848 25.04 32.8 91 12 0.6 33.1
14:15 1019 30.09 848 25.04 33.9 93 12 1 33.8
14:20 1019 30.09 848 25.04 34.2 93.6 12 1.4 34.5
14:25 1019 30.09 848 25.04 34.3 93.7 12 1 33.9
14:30 1019 30.09 848 25.04 34.2 93.6 13 2.3 36.1
14:35 1019 30.09 848 25.04 32.6 90.6 13 1 33.8
14:40 1019 30.09 848 25.04 32.2 89.9 13 0.9 33.7
14:45 1018 30.06 848 25.04 32.5 90.6 13 0.6 33
14:50 1018 30.06 848 25.04 32.6 90.6 12 0.3 32.5
14:55 1018 30.06 848 25.04 32.6 90.6 13 0.7 33.2
15:00 1018 30.06 848 25.04 33.3 92 12 0.4 32.8
15:05 1018 30.06 847 25.01 33.6 92.4 13 1.7 35.1
15:10 1018 30.06 847 25.01 32.7 90.8 13 1.1 34
15:15 1018 30.06 847 25.01 32.7 90.8 11 -0.8 30.6
15:20 1018 30.06 847 25.01 32.9 91.2 11 -0.9 30.4
15:25 1018 30.06 847 25.01 33.7 92.6 10 -1.2 29.8
15:30 1018 30.06 847 25.01 33.2 91.8 11 -1.4 29.5
15:35 1018 30.06 847 25.01 33 91.5 11 -1.3 29.6
15:40 1018 30.06 847 25.01 33.3 91.9 11 -0.3 31.4
15:45 1018 30.06 847 25.01 33.6 92.5 10 -1.5 29.3
15:50 1018 30.06 847 25.01 33.8 92.8 10 -1.3 29.6
15:55 1018 30.06 847 25.01 33.6 92.4 11 -0.4 31.2
16:00 1018 30.06 847 25.01 33.2 91.7 10 -1.9 28.6
16:05 1017 30.03 847 25.01 32.8 91.1 11 -0.9 30.3
16:10 1017 30.03 847 25.01 33 91.3 11 -0.5 31.1
16:15 1017 30.03 847 25.01 33.3 91.9 11 -0.7 30.7
16:20 1017 30.03 847 25.01 33 91.4 11 -0.6 30.9
16:25 1017 30.03 846 24.98 32.8 91 11 -0.6 30.9
16:30 1017 30.03 846 24.98 33.2 91.7 11 -1.3 29.6
16:35 1017 30.03 846 24.98 33.4 92 11 -0.9 30.4
16:40 1017 30.03 846 24.98 32.9 91.3 11 -1.2 29.8
16:45 1017 30.03 846 24.98 32.8 91 11 -1.2 29.8
16:50 1017 30.03 846 24.98 32.8 91 10 -1.9 28.6
16:55 1017 30.03 846 24.98 33 91.4 11 -1.4 29.4
17:00 1017 30.03 846 24.98 32.6 90.6 11 -1.1 30
17:05 1017 30.03 846 24.98 32.6 90.7 11 -1.5 29.4
17:10 1017 30.03 846 24.98 32.8 91.1 11 -1.3 29.7
17:15 1017 30.03 846 24.98 32.6 90.8 11 -1.3 29.6
17:20 1017 30.03 846 24.98 33.2 91.7 11 -1 30.3
17:25 1016 30 846 24.98 33.4 92.1 11 -1 30.3
17:30 1016 30 846 24.98 33.3 92 11 -1.2 29.8
17:35 1016 30 845 24.95 33.3 91.9 11 -0.4 31.3
17:40 1016 30 845 24.95 33.3 91.9 11 -0.4 31.3
17:45 1016 30 845 24.95 32.9 91.2 12 -0 31.9
17:50 1016 30 845 24.95 32.8 91.1 11 -0.7 30.8
17:55 1016 30 845 24.95 33 91.4 12 -0.1 31.8
18:00 1016 30 845 24.95 33.1 91.7 12 0.9 33.6
18:05 1016 30 845 24.95 32.7 90.9 14 2.1 35.7
18:10 1016 30 845 24.95 32.1 89.8 13 0.5 32.9
18:15 1016 30 845 24.95 31.7 89 15 2.7 36.8
18:20 1016 30 845 24.95 31.4 88.4 17 3.9 39.1
18:25 1016 30 845 24.95 31.1 87.9 22 7.1 44.7
18:30 1016 30 845 24.95 30.7 87.3 16 2.1 35.9
18:35 1016 30 845 24.95 30.4 86.7 20 5.2 41.4
18:40 1016 30 846 24.98 29.9 85.8 24 7.7 45.9
18:45 1016 30 846 24.98 29.7 85.4 23 6.9 44.4
18:50 1016 30 846 24.98 29.1 84.3 26 7.8 46.1
18:55 1016 30 846 24.98 28.7 83.7 22 5.4 41.8
19:00 1017 30.03 846 24.98 28.7 83.6 25 7.3 45.2
19:05 1017 30.03 846 24.98 27.7 81.9 28 7.8 46
19:10 1017 30.03 846 24.98 27 80.6 21 3.4 38.2
19:15 1017 30.03 846 24.98 27.7 81.9 20 3.2 37.7
19:20 1017 30.03 846 24.98 28.1 82.7 17 1.4 34.5
19:25 1017 30.03 846 24.98 28.4 83.1 18 2.3 36.2
19:30 1017 30.03 846 24.98 27.6 81.8 20 2.7 36.8
19:35 1017 30.03 847 25.01 27.7 81.8 21 3.3 38
19:40 1018 30.06 847 25.01 27.3 81.1 22 4.1 39.4
19:45 1018 30.06 847 25.01 26.8 80.3 19 1.7 35
19:50 1018 30.06 847 25.01 27 80.6 23 4.5 40.1
19:55 1018 30.06 847 25.01 26.4 79.4 23 3.8 38.8
20:00 1018 30.06 848 25.04 26 78.8 26 5.1 41.1
20:05 1018 30.06 847 25.01 25.5 77.9 25 4.4 39.9
20:10 1018 30.06 847 25.01 25.6 78.1 25 4.3 39.8
20:15 1018 30.06 847 25.01 25.5 78 26 4.8 40.7
20:20 1018 30.06 847 25.01 25.4 77.8 25 4.5 40
20:25 1018 30.06 847 25.01 25.3 77.5 26 4.4 39.9
20:30 1018 30.06 847 25.01 25.3 77.5 25 4.1 39.4
20:35 1018 30.06 847 25.01 25.4 77.7 25 4.2 39.6
20:40 1018 30.06 848 25.04 25.4 77.8 25 4.4 39.9
20:45 1019 30.09 848 25.04 25.1 77.3 27 4.9 40.7
20:50 1019 30.09 848 25.04 25 76.9 27 4.7 40.5
20:55 1019 30.09 848 25.04 25 77 27 4.8 40.6
21:00 1019 30.09 848 25.04 25.1 77.1 26 4.7 40.5
21:05 1019 30.09 848 25.04 25.1 77.1 27 4.8 40.7
21:10 1019 30.09 848 25.04 24.9 76.9 27 4.9 40.8
21:15 1019 30.09 848 25.04 24.9 76.8 26 4.5 40.1
21:20 1019 30.09 848 25.04 25 76.9 26 4.4 39.9
21:25 1019 30.09 848 25.04 24.9 76.9 26 4.2 39.6
21:30 1019 30.09 848 25.04 25.1 77.1 26 4.3 39.7
21:35 1019 30.09 848 25.04 24.9 76.8 26 4.2 39.6
21:40 1019 30.09 848 25.04 24.8 76.6 27 4.5 40.1
21:45 1019 30.09 848 25.04 24.4 75.9 29 5.2 41.4
21:50 1019 30.09 848 25.04 24.1 75.3 29 5.2 41.3
21:55 1019 30.09 848 25.04 23.9 75.1 29 5.1 41.2
22:00 1018 30.06 848 25.04 23.8 74.8 30 5.2 41.3
22:05 1018 30.06 848 25.04 23.8 74.8 29 4.8 40.6
22:10 1018 30.06 848 25.04 23.9 75 28 4.7 40.4
22:15 1018 30.06 848 25.04 23.9 75.1 29 4.8 40.7
22:20 1018 30.06 848 25.04 23.8 74.8 29 5.1 41.2
22:25 1018 30.06 848 25.04 23.7 74.7 29 5.1 41.1
22:30 1019 30.09 848 25.04 23.5 74.3 30 5.4 41.7
22:35 1019 30.09 848 25.04 23.3 73.9 34 6.8 44.3
22:40 1019 30.09 848 25.04 22.4 72.3 34 5.8 42.4
22:45 1019 30.09 848 25.04 22.5 72.4 33 5.7 42.3
22:50 1019 30.09 848 25.04 22.5 72.4 33 5.7 42.2
22:55 1019 30.09 848 25.04 22.5 72.4 33 5.5 41.9
23:00 1019 30.09 848 25.04 22.5 72.4 33 5.6 42.1
23:05 1019 30.09 848 25.04 22.4 72.3 33 5.4 41.7
23:10 1019 30.09 848 25.04 22.5 72.5 32 5.2 41.4
23:15 1019 30.09 848 25.04 22.8 73 31 5.1 41.1
23:20 1019 30.09 848 25.04 23.1 73.6 30 5 41.1
23:25 1019 30.09 848 25.04 23.3 73.9 29 4.7 40.4
23:30 1019 30.09 848 25.04 23.4 74.1 29 4.7 40.5
23:35 1019 30.09 848 25.04 23.4 74.1 29 4.6 40.3
23:40 1018 30.06 848 25.04 23.3 74 30 4.9 40.9
23:45 1018 30.06 848 25.04 22.9 73.1 32 5.3 41.5
23:50 1018 30.06 848 25.04 22.3 72.1 35 6.3 43.3
23:55 1018 30.06 848 25.04 21.5 70.8 36 6 42.7
24:00 1018 30.06 848 25.04 21.4 70.5 39 7.1 44.7